sensor_id;sensor_type;location;lat;lon;timestamp;pressure;altitude;pressure_sealevel;temperature;humidity
21728;BME280;11026;50.560;17.852;2023-03-18T00:01:12;99599.28;;;5.53;45.02
21728;BME280;11026;50.560;17.852;2023-03-18T00:03:39;99596.78;;;5.49;45.49
21728;BME280;11026;50.560;17.852;2023-03-18T00:06:14;99585.47;;;5.45;45.85
21728;BME280;11026;50.560;17.852;2023-03-18T00:08:44;99587.41;;;5.37;46.29
21728;BME280;11026;50.560;17.852;2023-03-18T00:11:13;99586.63;;;5.33;46.98
21728;BME280;11026;50.560;17.852;2023-03-18T00:13:42;99583.19;;;5.30;46.04
21728;BME280;11026;50.560;17.852;2023-03-18T00:16:11;99590.19;;;5.31;46.84
21728;BME280;11026;50.560;17.852;2023-03-18T00:18:39;99591.16;;;5.27;46.34
21728;BME280;11026;50.560;17.852;2023-03-18T00:21:08;99585.97;;;5.22;46.82
21728;BME280;11026;50.560;17.852;2023-03-18T00:23:35;99580.88;;;5.16;47.13
21728;BME280;11026;50.560;17.852;2023-03-18T00:26:05;99582.69;;;5.12;46.90
21728;BME280;11026;50.560;17.852;2023-03-18T00:28:35;99568.69;;;5.13;46.53
21728;BME280;11026;50.560;17.852;2023-03-18T00:31:09;99581.69;;;5.18;46.11
21728;BME280;11026;50.560;17.852;2023-03-18T00:33:38;99586.88;;;5.23;46.12
21728;BME280;11026;50.560;17.852;2023-03-18T00:36:16;99575.53;;;5.21;47.14
21728;BME280;11026;50.560;17.852;2023-03-18T00:38:46;99583.50;;;5.16;46.73
21728;BME280;11026;50.560;17.852;2023-03-18T00:41:17;99577.47;;;5.12;46.83
21728;BME280;11026;50.560;17.852;2023-03-18T00:43:47;99570.56;;;5.08;47.73
21728;BME280;11026;50.560;17.852;2023-03-18T00:46:26;99568.78;;;5.09;47.43
21728;BME280;11026;50.560;17.852;2023-03-18T00:48:56;99562.69;;;5.08;47.13
21728;BME280;11026;50.560;17.852;2023-03-18T00:51:24;99570.59;;;5.05;47.09
21728;BME280;11026;50.560;17.852;2023-03-18T00:54:02;99561.09;;;5.01;47.50
21728;BME280;11026;50.560;17.852;2023-03-18T00:56:34;99557.72;;;4.94;47.60
21728;BME280;11026;50.560;17.852;2023-03-18T00:59:04;99554.31;;;4.91;48.09
21728;BME280;11026;50.560;17.852;2023-03-18T01:01:32;99554.44;;;4.85;47.61
21728;BME280;11026;50.560;17.852;2023-03-18T01:04:01;99562.25;;;4.88;47.88
21728;BME280;11026;50.560;17.852;2023-03-18T01:06:30;99556.19;;;4.84;47.86
21728;BME280;11026;50.560;17.852;2023-03-18T01:09:00;99552.72;;;4.82;47.88
21728;BME280;11026;50.560;17.852;2023-03-18T01:11:35;99558.78;;;4.86;48.08
21728;BME280;11026;50.560;17.852;2023-03-18T01:14:03;99556.19;;;4.84;47.91
21728;BME280;11026;50.560;17.852;2023-03-18T01:16:30;99557.97;;;4.82;48.11
21728;BME280;11026;50.560;17.852;2023-03-18T01:19:05;99563.13;;;4.87;47.57
21728;BME280;11026;50.560;17.852;2023-03-18T01:21:32;99558.91;;;4.80;48.35
21728;BME280;11026;50.560;17.852;2023-03-18T01:24:06;99557.25;;;4.76;48.59
21728;BME280;11026;50.560;17.852;2023-03-18T01:26:34;99550.41;;;4.68;49.26
21728;BME280;11026;50.560;17.852;2023-03-18T01:29:03;99546.91;;;4.68;48.84
21728;BME280;11026;50.560;17.852;2023-03-18T01:31:30;99547.78;;;4.67;48.23
21728;BME280;11026;50.560;17.852;2023-03-18T01:33:58;99549.53;;;4.68;47.90
21728;BME280;11026;50.560;17.852;2023-03-18T01:36:25;99542.59;;;4.65;48.78
21728;BME280;11026;50.560;17.852;2023-03-18T01:38:54;99540.81;;;4.67;47.75
21728;BME280;11026;50.560;17.852;2023-03-18T01:41:24;99540.84;;;4.66;48.40
21728;BME280;11026;50.560;17.852;2023-03-18T01:43:53;99545.16;;;4.68;48.05
21728;BME280;11026;50.560;17.852;2023-03-18T01:46:37;99541.63;;;4.69;48.13
21728;BME280;11026;50.560;17.852;2023-03-18T01:49:18;99550.25;;;4.75;47.37
21728;BME280;11026;50.560;17.852;2023-03-18T01:52:09;99536.44;;;4.66;48.02
21728;BME280;11026;50.560;17.852;2023-03-18T01:54:43;99550.41;;;4.68;48.20
21728;BME280;11026;50.560;17.852;2023-03-18T01:57:13;99547.88;;;4.62;48.33
21728;BME280;11026;50.560;17.852;2023-03-18T01:59:43;99546.06;;;4.67;47.49
21728;BME280;11026;50.560;17.852;2023-03-18T02:02:14;99552.03;;;4.74;47.57
21728;BME280;11026;50.560;17.852;2023-03-18T02:04:54;99554.75;;;4.69;47.70
21728;BME280;11026;50.560;17.852;2023-03-18T02:07:33;99551.16;;;4.74;47.57
21728;BME280;11026;50.560;17.852;2023-03-18T02:10:08;99559.78;;;4.79;47.45
21728;BME280;11026;50.560;17.852;2023-03-18T02:12:45;99558.06;;;4.78;47.69
21728;BME280;11026;50.560;17.852;2023-03-18T02:15:17;99547.59;;;4.78;47.08
21728;BME280;11026;50.560;17.852;2023-03-18T02:17:52;99548.47;;;4.77;47.24
21728;BME280;11026;50.560;17.852;2023-03-18T02:23:20;99545.13;;;4.70;48.04
21728;BME280;11026;50.560;17.852;2023-03-18T02:28:40;99539.13;;;4.65;48.08
21728;BME280;11026;50.560;17.852;2023-03-18T02:31:13;99540.94;;;4.61;48.15
21728;BME280;11026;50.560;17.852;2023-03-18T02:33:43;99536.59;;;4.59;48.58
21728;BME280;11026;50.560;17.852;2023-03-18T02:36:22;99542.06;;;4.48;49.31
21728;BME280;11026;50.560;17.852;2023-03-18T02:38:51;99538.66;;;4.43;49.42
21728;BME280;11026;50.560;17.852;2023-03-18T02:41:21;99544.88;;;4.37;49.51
21728;BME280;11026;50.560;17.852;2023-03-18T02:43:51;99541.44;;;4.34;48.96
21728;BME280;11026;50.560;17.852;2023-03-18T02:49:05;99553.00;;;4.22;49.73
21728;BME280;11026;50.560;17.852;2023-03-18T02:51:35;99551.25;;;4.23;49.48
21728;BME280;11026;50.560;17.852;2023-03-18T02:54:13;99546.06;;;4.19;49.68
21728;BME280;11026;50.560;17.852;2023-03-18T02:56:42;99555.69;;;4.19;49.78
21728;BME280;11026;50.560;17.852;2023-03-18T02:59:10;99546.25;;;4.10;49.68
21728;BME280;11026;50.560;17.852;2023-03-18T03:01:41;99550.56;;;4.11;49.61
21728;BME280;11026;50.560;17.852;2023-03-18T03:04:09;99553.25;;;4.08;49.88
21728;BME280;11026;50.560;17.852;2023-03-18T03:06:36;99537.56;;;4.08;50.21
21728;BME280;11026;50.560;17.852;2023-03-18T03:09:06;99537.56;;;4.08;50.16
21728;BME280;11026;50.560;17.852;2023-03-18T03:11:34;99548.03;;;4.08;50.90
21728;BME280;11026;50.560;17.852;2023-03-18T03:14:02;99535.94;;;4.01;51.40
21728;BME280;11026;50.560;17.852;2023-03-18T03:16:30;99541.94;;;4.06;50.20
21728;BME280;11026;50.560;17.852;2023-03-18T03:18:57;99536.66;;;4.09;50.49
21728;BME280;11026;50.560;17.852;2023-03-18T03:21:26;99537.56;;;4.08;50.23
21728;BME280;11026;50.560;17.852;2023-03-18T03:23:53;99539.25;;;4.11;50.18
21728;BME280;11026;50.560;17.852;2023-03-18T03:26:21;99541.81;;;4.14;50.07
21728;BME280;11026;50.560;17.852;2023-03-18T03:28:48;99552.38;;;4.09;50.73
21728;BME280;11026;50.560;17.852;2023-03-18T03:31:16;99549.84;;;4.03;51.15
21728;BME280;11026;50.560;17.852;2023-03-18T03:33:44;99549.97;;;3.97;51.30
21728;BME280;11026;50.560;17.852;2023-03-18T03:36:14;99548.25;;;3.96;50.77
21728;BME280;11026;50.560;17.852;2023-03-18T03:38:44;99542.25;;;3.88;51.09
21728;BME280;11026;50.560;17.852;2023-03-18T03:41:12;99550.06;;;3.91;50.89
21728;BME280;11026;50.560;17.852;2023-03-18T03:43:41;99551.03;;;3.85;50.99
21728;BME280;11026;50.560;17.852;2023-03-18T03:46:09;99545.88;;;3.79;51.05
21728;BME280;11026;50.560;17.852;2023-03-18T03:48:37;99545.06;;;3.76;51.19
21728;BME280;11026;50.560;17.852;2023-03-18T03:51:11;99550.38;;;3.73;51.17
21728;BME280;11026;50.560;17.852;2023-03-18T03:53:40;99546.00;;;3.72;51.62
21728;BME280;11026;50.560;17.852;2023-03-18T03:56:09;99548.75;;;3.64;51.74
21728;BME280;11026;50.560;17.852;2023-03-18T03:58:37;99552.28;;;3.61;51.98
21728;BME280;11026;50.560;17.852;2023-03-18T04:01:06;99552.25;;;3.64;51.88
21728;BME280;11026;50.560;17.852;2023-03-18T04:03:34;99547.13;;;3.57;51.98
21728;BME280;11026;50.560;17.852;2023-03-18T04:06:02;99548.97;;;3.50;52.36
21728;BME280;11026;50.560;17.852;2023-03-18T04:08:30;99556.84;;;3.49;52.43
21728;BME280;11026;50.560;17.852;2023-03-18T04:10:57;99554.22;;;3.49;52.77
21728;BME280;11026;50.560;17.852;2023-03-18T04:13:25;99552.41;;;3.54;52.28
21728;BME280;11026;50.560;17.852;2023-03-18T04:15:52;99556.66;;;3.59;51.96
21728;BME280;11026;50.560;17.852;2023-03-18T04:18:21;99547.03;;;3.64;52.44
21728;BME280;11026;50.560;17.852;2023-03-18T04:20:48;99551.25;;;3.72;51.81
21728;BME280;11026;50.560;17.852;2023-03-18T04:23:16;99542.56;;;3.68;52.42
21728;BME280;11026;50.560;17.852;2023-03-18T04:25:43;99538.97;;;3.77;52.26
21728;BME280;11026;50.560;17.852;2023-03-18T04:28:10;99543.22;;;3.82;52.35
21728;BME280;11026;50.560;17.852;2023-03-18T04:30:38;99542.38;;;3.82;51.86
21728;BME280;11026;50.560;17.852;2023-03-18T04:33:05;99551.06;;;3.82;52.31
21728;BME280;11026;50.560;17.852;2023-03-18T04:35:34;99551.97;;;3.80;52.77
21728;BME280;11026;50.560;17.852;2023-03-18T04:38:02;99546.75;;;3.80;52.01
21728;BME280;11026;50.560;17.852;2023-03-18T04:40:30;99553.72;;;3.81;52.29
21728;BME280;11026;50.560;17.852;2023-03-18T04:42:59;99556.44;;;3.76;52.54
21728;BME280;11026;50.560;17.852;2023-03-18T04:45:28;99558.09;;;3.79;52.59
21728;BME280;11026;50.560;17.852;2023-03-18T04:47:57;99565.13;;;3.77;52.90
21728;BME280;11026;50.560;17.852;2023-03-18T04:50:24;99574.78;;;3.72;52.87
21728;BME280;11026;50.560;17.852;2023-03-18T04:52:52;99568.72;;;3.69;53.13
21728;BME280;11026;50.560;17.852;2023-03-18T04:55:19;99572.13;;;3.76;53.36
21728;BME280;11026;50.560;17.852;2023-03-18T04:57:47;99564.19;;;3.79;54.02
21728;BME280;11026;50.560;17.852;2023-03-18T05:00:19;99561.53;;;3.82;53.18
21728;BME280;11026;50.560;17.852;2023-03-18T05:02:49;99562.44;;;3.80;53.08
21728;BME280;11026;50.560;17.852;2023-03-18T05:05:17;99565.78;;;3.88;52.56
21728;BME280;11026;50.560;17.852;2023-03-18T05:07:44;99564.78;;;3.98;51.98
21728;BME280;11026;50.560;17.852;2023-03-18T05:10:12;99569.88;;;4.06;51.71
21728;BME280;11026;50.560;17.852;2023-03-18T05:12:46;99568.84;;;4.16;51.44
21728;BME280;11026;50.560;17.852;2023-03-18T05:15:16;99568.00;;;4.14;51.96
21728;BME280;11026;50.560;17.852;2023-03-18T05:17:44;99571.34;;;4.22;51.52
21728;BME280;11026;50.560;17.852;2023-03-18T05:20:13;99579.91;;;4.30;51.31
21728;BME280;11026;50.560;17.852;2023-03-18T05:22:41;99577.16;;;4.38;51.08
21728;BME280;11026;50.560;17.852;2023-03-18T05:25:08;99583.97;;;4.48;50.69
21728;BME280;11026;50.560;17.852;2023-03-18T05:27:37;99566.38;;;4.56;50.81
21728;BME280;11026;50.560;17.852;2023-03-18T05:30:07;99576.72;;;4.62;50.37
21728;BME280;11026;50.560;17.852;2023-03-18T05:32:35;99587.03;;;4.70;50.77
21728;BME280;11026;50.560;17.852;2023-03-18T05:35:04;99584.41;;;4.72;50.26
21728;BME280;11026;50.560;17.852;2023-03-18T05:37:32;99580.78;;;4.77;50.26
21728;BME280;11026;50.560;17.852;2023-03-18T05:40:00;99587.59;;;4.86;49.86
21728;BME280;11026;50.560;17.852;2023-03-18T05:42:29;99582.25;;;4.92;50.30
21728;BME280;11026;50.560;17.852;2023-03-18T05:44:56;99582.97;;;5.00;50.04
21728;BME280;11026;50.560;17.852;2023-03-18T05:47:24;99589.66;;;5.13;48.44
21728;BME280;11026;50.560;17.852;2023-03-18T05:49:52;99594.78;;;5.20;48.59
21728;BME280;11026;50.560;17.852;2023-03-18T05:52:22;99595.50;;;5.26;48.71
21728;BME280;11026;50.560;17.852;2023-03-18T05:54:49;99597.09;;;5.33;48.41
21728;BME280;11026;50.560;17.852;2023-03-18T05:57:17;99599.63;;;5.38;47.77
21728;BME280;11026;50.560;17.852;2023-03-18T05:59:45;99593.41;;;5.43;47.95
21728;BME280;11026;50.560;17.852;2023-03-18T06:02:14;99600.38;;;5.45;48.43
21728;BME280;11026;50.560;17.852;2023-03-18T06:04:44;99596.72;;;5.52;48.90
21728;BME280;11026;50.560;17.852;2023-03-18T06:07:11;99602.88;;;5.49;47.63
21728;BME280;11026;50.560;17.852;2023-03-18T06:09:40;99601.91;;;5.53;47.23
21728;BME280;11026;50.560;17.852;2023-03-18T06:12:07;99602.75;;;5.55;47.49
21728;BME280;11026;50.560;17.852;2023-03-18T06:14:35;99604.34;;;5.62;46.99
21728;BME280;11026;50.560;17.852;2023-03-18T06:17:03;99611.31;;;5.63;49.21
21728;BME280;11026;50.560;17.852;2023-03-18T06:19:31;99608.53;;;5.71;47.25
21728;BME280;11026;50.560;17.852;2023-03-18T06:22:00;99610.13;;;5.77;47.62
21728;BME280;11026;50.560;17.852;2023-03-18T06:24:27;99594.28;;;5.81;47.31
21728;BME280;11026;50.560;17.852;2023-03-18T06:26:56;99602.91;;;5.86;47.48
21728;BME280;11026;50.560;17.852;2023-03-18T06:29:24;99613.44;;;5.86;47.11
21728;BME280;11026;50.560;17.852;2023-03-18T06:31:53;99609.81;;;5.92;46.90
21728;BME280;11026;50.560;17.852;2023-03-18T06:34:21;99616.66;;;5.99;47.43
21728;BME280;11026;50.560;17.852;2023-03-18T06:36:48;99620.06;;;6.03;47.99
21728;BME280;11026;50.560;17.852;2023-03-18T06:39:15;99611.53;;;5.93;47.15
21728;BME280;11026;50.560;17.852;2023-03-18T06:41:44;99610.69;;;5.91;47.17
21728;BME280;11026;50.560;17.852;2023-03-18T06:44:11;99615.00;;;5.95;49.02
21728;BME280;11026;50.560;17.852;2023-03-18T06:46:39;99608.06;;;5.91;47.21
21728;BME280;11026;50.560;17.852;2023-03-18T06:49:09;99601.09;;;5.88;47.41
21728;BME280;11026;50.560;17.852;2023-03-18T06:51:38;99610.69;;;5.89;47.30
21728;BME280;11026;50.560;17.852;2023-03-18T06:54:05;99612.47;;;5.89;47.55
21728;BME280;11026;50.560;17.852;2023-03-18T06:56:34;99618.44;;;5.97;47.43
21728;BME280;11026;50.560;17.852;2023-03-18T06:59:06;99614.75;;;6.06;48.67
21728;BME280;11026;50.560;17.852;2023-03-18T07:01:34;99611.94;;;6.12;48.28
21728;BME280;11026;50.560;17.852;2023-03-18T07:04:03;99616.28;;;6.14;47.10
21728;BME280;11026;50.560;17.852;2023-03-18T07:06:32;99613.47;;;6.21;47.21
21728;BME280;11026;50.560;17.852;2023-03-18T07:08:59;99616.78;;;6.29;46.94
21728;BME280;11026;50.560;17.852;2023-03-18T07:11:27;99619.00;;;6.46;47.22
21728;BME280;11026;50.560;17.852;2023-03-18T07:13:54;99623.84;;;6.61;46.97
21728;BME280;11026;50.560;17.852;2023-03-18T07:16:27;99623.06;;;6.57;46.02
21728;BME280;11026;50.560;17.852;2023-03-18T07:18:57;99612.19;;;6.71;46.71
21728;BME280;11026;50.560;17.852;2023-03-18T07:21:31;99631.50;;;6.69;45.75
21728;BME280;11026;50.560;17.852;2023-03-18T07:23:59;99612.91;;;6.76;46.02
21728;BME280;11026;50.560;17.852;2023-03-18T07:26:28;99614.25;;;6.91;45.92
21728;BME280;11026;50.560;17.852;2023-03-18T07:28:56;99617.53;;;6.99;45.73
21728;BME280;11026;50.560;17.852;2023-03-18T07:31:24;99624.31;;;7.08;45.56
21728;BME280;11026;50.560;17.852;2023-03-18T07:33:51;99625.16;;;7.08;45.47
21728;BME280;11026;50.560;17.852;2023-03-18T07:36:19;99608.50;;;7.09;45.11
21728;BME280;11026;50.560;17.852;2023-03-18T07:38:46;99618.59;;;7.25;45.08
21728;BME280;11026;50.560;17.852;2023-03-18T07:41:14;99634.91;;;7.36;44.98
21728;BME280;11026;50.560;17.852;2023-03-18T07:43:41;99623.84;;;7.54;46.06
21728;BME280;11026;50.560;17.852;2023-03-18T07:46:12;99627.19;;;7.59;45.93
21728;BME280;11026;50.560;17.852;2023-03-18T07:48:41;99637.13;;;7.50;44.41
21728;BME280;11026;50.560;17.852;2023-03-18T07:51:08;99624.00;;;7.48;45.04
21728;BME280;11026;50.560;17.852;2023-03-18T07:53:36;99629.78;;;7.61;45.58
21728;BME280;11026;50.560;17.852;2023-03-18T07:56:04;99632.72;;;7.50;44.22
21728;BME280;11026;50.560;17.852;2023-03-18T07:58:31;99641.34;;;7.55;44.42
21728;BME280;11026;50.560;17.852;2023-03-18T08:01:01;99640.41;;;7.58;44.54
21728;BME280;11026;50.560;17.852;2023-03-18T08:03:28;99637.16;;;7.78;44.52
21728;BME280;11026;50.560;17.852;2023-03-18T08:05:55;99631.13;;;7.74;44.10
21728;BME280;11026;50.560;17.852;2023-03-18T08:08:23;99645.13;;;7.76;43.63
21728;BME280;11026;50.560;17.852;2023-03-18T08:10:55;99648.38;;;7.84;44.42
21728;BME280;11026;50.560;17.852;2023-03-18T08:13:23;99636.28;;;8.05;43.86
21728;BME280;11026;50.560;17.852;2023-03-18T08:15:53;99646.91;;;8.02;44.24
21728;BME280;11026;50.560;17.852;2023-03-18T08:18:22;99654.41;;;8.16;44.12
21728;BME280;11026;50.560;17.852;2023-03-18T08:20:50;99648.53;;;8.08;42.73
21728;BME280;11026;50.560;17.852;2023-03-18T08:23:19;99644.03;;;8.38;43.94
21728;BME280;11026;50.560;17.852;2023-03-18T08:25:49;99654.25;;;8.47;43.20
21728;BME280;11026;50.560;17.852;2023-03-18T08:28:17;99642.94;;;8.45;42.49
21728;BME280;11026;50.560;17.852;2023-03-18T08:30:44;99638.19;;;8.55;42.65
21728;BME280;11026;50.560;17.852;2023-03-18T08:33:12;99634.59;;;8.57;42.05
21728;BME280;11026;50.560;17.852;2023-03-18T08:35:40;99620.66;;;8.79;41.91
21728;BME280;11026;50.560;17.852;2023-03-18T08:38:09;99613.22;;;8.90;42.23
21728;BME280;11026;50.560;17.852;2023-03-18T08:40:39;99621.22;;;8.89;40.51
21728;BME280;11026;50.560;17.852;2023-03-18T08:43:07;99622.03;;;9.14;41.12
21728;BME280;11026;50.560;17.852;2023-03-18T08:45:51;99613.22;;;9.39;40.82
21728;BME280;11026;50.560;17.852;2023-03-18T08:48:21;99624.16;;;9.51;39.48
21728;BME280;11026;50.560;17.852;2023-03-18T08:50:49;99615.91;;;9.37;38.15
21728;BME280;11026;50.560;17.852;2023-03-18T08:53:18;99620.53;;;9.54;38.33
21728;BME280;11026;50.560;17.852;2023-03-18T08:55:46;99614.84;;;9.65;38.43
21728;BME280;11026;50.560;17.852;2023-03-18T08:58:15;99612.28;;;9.63;37.08
21728;BME280;11026;50.560;17.852;2023-03-18T09:00:43;99618.97;;;9.72;37.46
21728;BME280;11026;50.560;17.852;2023-03-18T09:03:10;99608.97;;;9.80;37.79
21728;BME280;11026;50.560;17.852;2023-03-18T09:05:38;99623.84;;;10.04;37.23
21728;BME280;11026;50.560;17.852;2023-03-18T09:08:06;99620.09;;;9.88;36.53
21728;BME280;11026;50.560;17.852;2023-03-18T09:10:33;99619.06;;;9.92;36.76
21728;BME280;11026;50.560;17.852;2023-03-18T09:13:01;99614.84;;;10.08;37.12
21728;BME280;11026;50.560;17.852;2023-03-18T09:15:29;99612.97;;;10.34;36.94
21728;BME280;11026;50.560;17.852;2023-03-18T09:17:59;99606.56;;;10.40;36.19
21728;BME280;11026;50.560;17.852;2023-03-18T09:20:39;99612.47;;;10.67;36.98
21728;BME280;11026;50.560;17.852;2023-03-18T09:23:08;99614.72;;;10.55;35.30
21728;BME280;11026;50.560;17.852;2023-03-18T09:25:36;99612.88;;;10.78;36.30
21728;BME280;11026;50.560;17.852;2023-03-18T09:28:04;99617.16;;;11.01;34.90
21728;BME280;11026;50.560;17.852;2023-03-18T09:30:31;99599.88;;;11.31;35.82
21728;BME280;11026;50.560;17.852;2023-03-18T09:33:07;99596.97;;;10.98;33.86
21728;BME280;11026;50.560;17.852;2023-03-18T09:35:35;99603.88;;;11.40;33.58
21728;BME280;11026;50.560;17.852;2023-03-18T09:38:04;99602.31;;;11.55;33.48
21728;BME280;11026;50.560;17.852;2023-03-18T09:40:36;99599.50;;;11.77;33.30
21728;BME280;11026;50.560;17.852;2023-03-18T09:53:51;99598.34;;;11.84;32.93
21728;BME280;11026;50.560;17.852;2023-03-18T09:56:31;99618.66;;;11.84;32.88
21728;BME280;11026;50.560;17.852;2023-03-18T09:59:17;99609.84;;;11.83;32.96
21728;BME280;11026;50.560;17.852;2023-03-18T10:01:52;99599.66;;;12.29;33.20
21728;BME280;11026;50.560;17.852;2023-03-18T10:04:25;99619.44;;;12.04;31.82
21728;BME280;11026;50.560;17.852;2023-03-18T10:07:00;99626.09;;;11.94;32.67
21728;BME280;11026;50.560;17.852;2023-03-18T10:09:38;99602.78;;;12.20;32.12
21728;BME280;11026;50.560;17.852;2023-03-18T10:15:00;99598.84;;;11.72;31.49
21728;BME280;11026;50.560;17.852;2023-03-18T10:17:35;99598.09;;;12.60;31.94
21728;BME280;11026;50.560;17.852;2023-03-18T10:20:15;99591.22;;;12.73;31.01
21728;BME280;11026;50.560;17.852;2023-03-18T10:22:57;99597.72;;;12.67;31.37
21728;BME280;11026;50.560;17.852;2023-03-18T10:25:52;99596.84;;;12.49;31.90
21728;BME280;11026;50.560;17.852;2023-03-18T10:31:56;99582.41;;;13.05;30.69
21728;BME280;11026;50.560;17.852;2023-03-18T10:34:56;99589.31;;;13.43;31.74
21728;BME280;11026;50.560;17.852;2023-03-18T10:40:37;99586.63;;;13.27;31.86
21728;BME280;11026;50.560;17.852;2023-03-18T10:43:24;99582.53;;;13.53;30.52
21728;BME280;11026;50.560;17.852;2023-03-18T10:46:04;99581.06;;;13.47;30.94
21728;BME280;11026;50.560;17.852;2023-03-18T10:48:37;99589.06;;;13.79;31.06
21728;BME280;11026;50.560;17.852;2023-03-18T10:54:11;99579.13;;;13.67;31.42
21728;BME280;11026;50.560;17.852;2023-03-18T10:56:41;99579.78;;;13.21;31.15
21728;BME280;11026;50.560;17.852;2023-03-18T10:59:13;99590.84;;;13.31;30.82
21728;BME280;11026;50.560;17.852;2023-03-18T11:01:46;99594.47;;;12.95;30.90
21728;BME280;11026;50.560;17.852;2023-03-18T11:04:20;99598.44;;;13.04;30.87
21728;BME280;11026;50.560;17.852;2023-03-18T11:07:01;99580.69;;;12.71;31.26
21728;BME280;11026;50.560;17.852;2023-03-18T11:09:32;99575.91;;;12.95;30.65
21728;BME280;11026;50.560;17.852;2023-03-18T11:12:04;99572.53;;;13.74;31.63
21728;BME280;11026;50.560;17.852;2023-03-18T11:14:36;99569.03;;;14.03;30.96
21728;BME280;11026;50.560;17.852;2023-03-18T11:17:17;99559.66;;;13.82;30.75
21728;BME280;11026;50.560;17.852;2023-03-18T11:19:47;99547.28;;;13.49;30.89
21728;BME280;11026;50.560;17.852;2023-03-18T11:22:26;99553.81;;;13.60;32.11
21728;BME280;11026;50.560;17.852;2023-03-18T11:27:44;99558.94;;;13.31;32.99
21728;BME280;11026;50.560;17.852;2023-03-18T11:30:24;99561.28;;;12.87;32.64
21728;BME280;11026;50.560;17.852;2023-03-18T11:35:44;99556.22;;;12.82;33.41
21728;BME280;11026;50.560;17.852;2023-03-18T11:38:20;99570.88;;;13.07;32.73
21728;BME280;11026;50.560;17.852;2023-03-18T11:40:47;99555.00;;;13.38;32.87
21728;BME280;11026;50.560;17.852;2023-03-18T11:43:18;99538.16;;;13.22;33.03
21728;BME280;11026;50.560;17.852;2023-03-18T11:48:37;99548.22;;;13.80;32.29
21728;BME280;11026;50.560;17.852;2023-03-18T11:51:23;99546.31;;;14.28;32.48
21728;BME280;11026;50.560;17.852;2023-03-18T11:56:44;99536.31;;;14.47;31.58
21728;BME280;11026;50.560;17.852;2023-03-18T11:59:21;99537.03;;;14.35;31.73
21728;BME280;11026;50.560;17.852;2023-03-18T12:13:22;99533.75;;;14.46;30.50
21728;BME280;11026;50.560;17.852;2023-03-18T12:19:12;99545.50;;;14.72;31.01
21728;BME280;11026;50.560;17.852;2023-03-18T12:24:31;99533.88;;;15.44;30.88
21728;BME280;11026;50.560;17.852;2023-03-18T12:27:26;99529.81;;;15.10;30.35
21728;BME280;11026;50.560;17.852;2023-03-18T12:35:58;99528.00;;;14.68;29.67
21728;BME280;11026;50.560;17.852;2023-03-18T12:38:50;99527.25;;;14.80;29.65
21728;BME280;11026;50.560;17.852;2023-03-18T12:44:10;99518.03;;;15.70;29.61
21728;BME280;11026;50.560;17.852;2023-03-18T12:47:04;99513.53;;;16.37;29.84
21728;BME280;11026;50.560;17.852;2023-03-18T12:49:42;99518.59;;;16.15;30.10
21728;BME280;11026;50.560;17.852;2023-03-18T12:57:41;99512.56;;;15.44;30.72
21728;BME280;11026;50.560;17.852;2023-03-18T13:00:23;99513.97;;;15.50;30.76
21728;BME280;11026;50.560;17.852;2023-03-18T13:02:58;99511.72;;;15.15;30.16
21728;BME280;11026;50.560;17.852;2023-03-18T13:05:56;99519.75;;;14.87;31.28
21728;BME280;11026;50.560;17.852;2023-03-18T13:08:39;99526.78;;;14.73;31.24
21728;BME280;11026;50.560;17.852;2023-03-18T13:11:33;99506.78;;;14.81;31.89
21728;BME280;11026;50.560;17.852;2023-03-18T13:14:22;99513.25;;;14.32;32.24
21728;BME280;11026;50.560;17.852;2023-03-18T13:16:54;99515.53;;;14.54;32.52
21728;BME280;11026;50.560;17.852;2023-03-18T13:19:22;99521.25;;;14.32;31.50
21728;BME280;11026;50.560;17.852;2023-03-18T13:24:58;99516.69;;;14.64;32.21
21728;BME280;11026;50.560;17.852;2023-03-18T13:28:12;99514.88;;;14.79;31.77
21728;BME280;11026;50.560;17.852;2023-03-18T13:30:55;99501.69;;;14.47;31.59
21728;BME280;11026;50.560;17.852;2023-03-18T13:39:16;99524.00;;;15.04;30.87
21728;BME280;11026;50.560;17.852;2023-03-18T13:44:42;99505.00;;;15.92;31.27
21728;BME280;11026;50.560;17.852;2023-03-18T13:47:20;99508.34;;;15.55;30.71
21728;BME280;11026;50.560;17.852;2023-03-18T13:50:01;99504.44;;;15.60;30.89
21728;BME280;11026;50.560;17.852;2023-03-18T13:52:44;99517.66;;;15.20;30.66
21728;BME280;11026;50.560;17.852;2023-03-18T13:55:41;99510.25;;;15.53;30.70
21728;BME280;11026;50.560;17.852;2023-03-18T13:58:27;99512.50;;;15.73;31.03
21728;BME280;11026;50.560;17.852;2023-03-18T14:09:31;99507.91;;;15.19;31.18
21728;BME280;11026;50.560;17.852;2023-03-18T14:12:36;99492.22;;;15.70;30.45
21728;BME280;11026;50.560;17.852;2023-03-18T14:17:55;99517.34;;;15.25;31.42
21728;BME280;11026;50.560;17.852;2023-03-18T14:20:43;99504.06;;;14.82;32.13
21728;BME280;11026;50.560;17.852;2023-03-18T14:23:34;99492.44;;;14.97;32.03
21728;BME280;11026;50.560;17.852;2023-03-18T14:26:17;99501.44;;;15.38;32.26
21728;BME280;11026;50.560;17.852;2023-03-18T14:29:12;99500.34;;;15.13;31.34
21728;BME280;11026;50.560;17.852;2023-03-18T14:41:59;99490.19;;;14.77;32.73
21728;BME280;11026;50.560;17.852;2023-03-18T14:44:52;99492.72;;;15.07;32.50
21728;BME280;11026;50.560;17.852;2023-03-18T14:50:18;99491.69;;;14.81;32.77
21728;BME280;11026;50.560;17.852;2023-03-18T14:53:10;99487.50;;;14.63;32.48
21728;BME280;11026;50.560;17.852;2023-03-18T14:55:38;99492.53;;;14.96;32.92
21728;BME280;11026;50.560;17.852;2023-03-18T14:58:16;99485.19;;;14.99;32.64
21728;BME280;11026;50.560;17.852;2023-03-18T15:00:49;99484.78;;;15.34;32.13
21728;BME280;11026;50.560;17.852;2023-03-18T15:03:22;99489.00;;;15.65;31.58
21728;BME280;11026;50.560;17.852;2023-03-18T15:05:55;99479.84;;;15.55;31.43
21728;BME280;11026;50.560;17.852;2023-03-18T15:08:27;99491.38;;;16.10;31.37
21728;BME280;11026;50.560;17.852;2023-03-18T15:11:17;99484.81;;;15.88;31.25
21728;BME280;11026;50.560;17.852;2023-03-18T15:13:46;99478.16;;;15.54;31.38